sensor_id;sensor_type;location;lat;lon;timestamp;pressure;altitude;pressure_sealevel;temperature;humidity
69879;BME280;57161;43.136;24.706;2022-10-16T00:00:34;100014.16;;;8.25;79.87
69879;BME280;57161;43.136;24.706;2022-10-16T00:03:00;100000.75;;;8.18;79.75
69879;BME280;57161;43.136;24.706;2022-10-16T00:05:26;99997.22;;;8.12;79.58
69879;BME280;57161;43.136;24.706;2022-10-16T00:07:51;100043.28;;;8.35;79.93
69879;BME280;57161;43.136;24.706;2022-10-16T00:10:17;100028.06;;;8.25;80.05
69879;BME280;57161;43.136;24.706;2022-10-16T00:12:42;100022.28;;;8.18;80.06
69879;BME280;57161;43.136;24.706;2022-10-16T00:15:08;99984.06;;;7.96;79.37
69879;BME280;57161;43.136;24.706;2022-10-16T00:17:33;100015.19;;;8.05;79.65
69879;BME280;57161;43.136;24.706;2022-10-16T00:19:59;100049.06;;;8.26;79.60
69879;BME280;57161;43.136;24.706;2022-10-16T00:22:24;100030.59;;;8.12;79.66
69879;BME280;57161;43.136;24.706;2022-10-16T00:24:50;100030.13;;;8.08;79.71
69879;BME280;57161;43.136;24.706;2022-10-16T00:27:16;100052.38;;;8.19;79.85
69879;BME280;57161;43.136;24.706;2022-10-16T00:29:42;100028.84;;;8.09;79.62
69879;BME280;57161;43.136;24.706;2022-10-16T00:32:08;100040.22;;;8.11;79.80
69879;BME280;57161;43.136;24.706;2022-10-16T00:34:34;99960.81;;;7.54;79.75
69879;BME280;57161;43.136;24.706;2022-10-16T00:36:59;100017.97;;;7.94;79.82
69879;BME280;57161;43.136;24.706;2022-10-16T00:39:25;100045.28;;;8.12;79.83
69879;BME280;57161;43.136;24.706;2022-10-16T00:41:51;100061.72;;;8.10;79.71
69879;BME280;57161;43.136;24.706;2022-10-16T00:47:14;100022.25;;;7.78;79.60
69879;BME280;57161;43.136;24.706;2022-10-16T00:49:41;100056.94;;;8.00;79.93
69879;BME280;57161;43.136;24.706;2022-10-16T00:52:06;100057.94;;;8.02;80.15
69879;BME280;57161;43.136;24.706;2022-10-16T00:54:33;100059.97;;;7.96;80.65
69879;BME280;57161;43.136;24.706;2022-10-16T00:57:04;100067.81;;;7.98;80.67
69879;BME280;57161;43.136;24.706;2022-10-16T00:59:49;100069.84;;;7.97;80.27
69879;BME280;57161;43.136;24.706;2022-10-16T01:02:15;100058.94;;;7.94;80.18
69879;BME280;57161;43.136;24.706;2022-10-16T01:04:47;100027.03;;;7.61;80.22
69879;BME280;57161;43.136;24.706;2022-10-16T01:12:51;100066.03;;;7.83;80.75
69879;BME280;57161;43.136;24.706;2022-10-16T01:15:51;100063.22;;;7.78;80.92
69879;BME280;57161;43.136;24.706;2022-10-16T01:18:54;100058.19;;;7.88;80.47
69879;BME280;57161;43.136;24.706;2022-10-16T01:21:25;100056.41;;;7.90;80.24
69879;BME280;57161;43.136;24.706;2022-10-16T01:29:48;100069.81;;;7.75;79.56
69879;BME280;57161;43.136;24.706;2022-10-16T01:34:59;100064.72;;;7.62;80.14
69879;BME280;57161;43.136;24.706;2022-10-16T01:37:38;100069.03;;;7.63;80.12
69879;BME280;57161;43.136;24.706;2022-10-16T01:40:11;100070.28;;;7.62;80.08
69879;BME280;57161;43.136;24.706;2022-10-16T01:42:42;100058.66;;;7.58;80.05
69879;BME280;57161;43.136;24.706;2022-10-16T01:45:15;100071.03;;;7.63;79.96
69879;BME280;57161;43.136;24.706;2022-10-16T01:47:48;100067.00;;;7.64;79.71
69879;BME280;57161;43.136;24.706;2022-10-16T01:50:16;100062.44;;;7.55;79.80
69879;BME280;57161;43.136;24.706;2022-10-16T01:52:47;100063.91;;;7.39;79.78
69879;BME280;57161;43.136;24.706;2022-10-16T01:55:19;100070.50;;;7.42;79.74
69879;BME280;57161;43.136;24.706;2022-10-16T01:57:49;100069.97;;;7.38;79.81
69879;BME280;57161;43.136;24.706;2022-10-16T02:00:19;100034.75;;;7.01;79.56
69879;BME280;57161;43.136;24.706;2022-10-16T02:02:49;100078.22;;;7.15;80.04
69879;BME280;57161;43.136;24.706;2022-10-16T02:05:32;100070.63;;;7.05;80.27
69879;BME280;57161;43.136;24.706;2022-10-16T02:07:59;100055.41;;;6.95;80.12
69879;BME280;57161;43.136;24.706;2022-10-16T02:10:25;100081.00;;;7.10;80.34
69879;BME280;57161;43.136;24.706;2022-10-16T02:13:23;100083.78;;;7.15;80.85
69879;BME280;57161;43.136;24.706;2022-10-16T02:15:51;100081.00;;;7.15;80.88
69879;BME280;57161;43.136;24.706;2022-10-16T02:18:16;100062.03;;;7.08;80.86
69879;BME280;57161;43.136;24.706;2022-10-16T02:20:51;100080.81;;;7.25;80.52
69879;BME280;57161;43.136;24.706;2022-10-16T02:23:24;100079.28;;;7.23;80.16
69879;BME280;57161;43.136;24.706;2022-10-16T02:25:54;100091.41;;;7.20;80.12
69879;BME280;57161;43.136;24.706;2022-10-16T02:28:28;100083.03;;;7.15;80.23
69879;BME280;57161;43.136;24.706;2022-10-16T02:31:00;100092.34;;;7.06;80.39
69879;BME280;57161;43.136;24.706;2022-10-16T02:33:27;100023.66;;;6.58;80.35
69879;BME280;57161;43.136;24.706;2022-10-16T02:35:55;100091.84;;;7.08;80.22
69879;BME280;57161;43.136;24.706;2022-10-16T02:38:22;100073.84;;;6.92;80.27
69879;BME280;57161;43.136;24.706;2022-10-16T02:40:48;100089.56;;;7.01;80.45
69879;BME280;57161;43.136;24.706;2022-10-16T02:43:15;100088.50;;;6.98;80.44
69879;BME280;57161;43.136;24.706;2022-10-16T02:45:41;100089.00;;;6.97;80.49
69879;BME280;57161;43.136;24.706;2022-10-16T02:48:06;100045.41;;;6.66;80.47
69879;BME280;57161;43.136;24.706;2022-10-16T02:50:32;100079.88;;;6.85;80.19
69879;BME280;57161;43.136;24.706;2022-10-16T02:52:57;100084.88;;;6.81;80.40
69879;BME280;57161;43.136;24.706;2022-10-16T02:55:23;100101.13;;;6.93;80.25
69879;BME280;57161;43.136;24.706;2022-10-16T02:57:48;100081.09;;;6.78;80.31
69879;BME280;57161;43.136;24.706;2022-10-16T03:00:16;100080.31;;;6.72;80.58
69879;BME280;57161;43.136;24.706;2022-10-16T03:02:43;100089.47;;;6.84;80.38
69879;BME280;57161;43.136;24.706;2022-10-16T03:05:09;100108.72;;;6.99;80.29
69879;BME280;57161;43.136;24.706;2022-10-16T03:07:34;100095.03;;;6.89;80.37
69879;BME280;57161;43.136;24.706;2022-10-16T03:10:00;100105.66;;;6.91;80.33
69879;BME280;57161;43.136;24.706;2022-10-16T03:12:27;100094.03;;;6.87;80.27
69879;BME280;57161;43.136;24.706;2022-10-16T03:14:52;100108.19;;;6.95;80.19
69879;BME280;57161;43.136;24.706;2022-10-16T03:17:18;100100.34;;;6.87;80.03
69879;BME280;57161;43.136;24.706;2022-10-16T03:19:43;100065.78;;;6.51;80.25
69879;BME280;57161;43.136;24.706;2022-10-16T03:22:09;100119.03;;;6.87;80.43
69879;BME280;57161;43.136;24.706;2022-10-16T03:24:34;100120.81;;;6.90;80.32
69879;BME280;57161;43.136;24.706;2022-10-16T03:27:00;100087.63;;;6.70;80.13
69879;BME280;57161;43.136;24.706;2022-10-16T03:29:26;100130.41;;;6.95;79.94
69879;BME280;57161;43.136;24.706;2022-10-16T03:31:52;100120.81;;;6.90;79.94
69879;BME280;57161;43.136;24.706;2022-10-16T03:34:18;100108.34;;;6.74;80.14
69879;BME280;57161;43.136;24.706;2022-10-16T03:36:44;100122.25;;;6.80;80.08
69879;BME280;57161;43.136;24.706;2022-10-16T03:39:09;100091.03;;;6.53;80.13
69879;BME280;57161;43.136;24.706;2022-10-16T03:41:34;100122.19;;;6.69;80.37
69879;BME280;57161;43.136;24.706;2022-10-16T03:44:00;100110.50;;;6.59;80.38
69879;BME280;57161;43.136;24.706;2022-10-16T03:46:25;100089.22;;;6.50;80.24
69879;BME280;57161;43.136;24.706;2022-10-16T03:48:51;100115.59;;;6.66;80.59
69879;BME280;57161;43.136;24.706;2022-10-16T03:51:16;100123.66;;;6.64;80.99
69879;BME280;57161;43.136;24.706;2022-10-16T03:53:42;100123.94;;;6.66;80.92
69879;BME280;57161;43.136;24.706;2022-10-16T03:56:07;100131.56;;;6.71;81.05
69879;BME280;57161;43.136;24.706;2022-10-16T03:58:33;100122.97;;;6.75;81.02
69879;BME280;57161;43.136;24.706;2022-10-16T04:00:58;100069.47;;;6.37;81.04
69879;BME280;57161;43.136;24.706;2022-10-16T04:03:23;100114.88;;;6.71;81.15
69879;BME280;57161;43.136;24.706;2022-10-16T04:05:49;100146.31;;;6.88;80.72
69879;BME280;57161;43.136;24.706;2022-10-16T04:08:15;100129.13;;;6.84;80.41
69879;BME280;57161;43.136;24.706;2022-10-16T04:10:42;100136.22;;;6.91;80.37
69879;BME280;57161;43.136;24.706;2022-10-16T04:13:08;100138.47;;;6.87;80.47
69879;BME280;57161;43.136;24.706;2022-10-16T04:15:34;100093.34;;;6.60;79.85
69879;BME280;57161;43.136;24.706;2022-10-16T04:17:59;100120.97;;;6.75;79.85
69879;BME280;57161;43.136;24.706;2022-10-16T04:20:25;100145.28;;;6.86;79.81
69879;BME280;57161;43.136;24.706;2022-10-16T04:22:50;100136.63;;;6.78;79.82
69879;BME280;57161;43.136;24.706;2022-10-16T04:25:16;100128.78;;;6.71;79.72
69879;BME280;57161;43.136;24.706;2022-10-16T04:27:41;100125.69;;;6.63;79.55
69879;BME280;57161;43.136;24.706;2022-10-16T04:30:07;100134.78;;;6.64;79.87
69879;BME280;57161;43.136;24.706;2022-10-16T04:32:33;100136.53;;;6.61;80.07
69879;BME280;57161;43.136;24.706;2022-10-16T04:34:58;100135.00;;;6.60;80.47
69879;BME280;57161;43.136;24.706;2022-10-16T04:37:25;100149.69;;;6.67;80.14
69879;BME280;57161;43.136;24.706;2022-10-16T04:39:51;100155.28;;;6.72;80.05
69879;BME280;57161;43.136;24.706;2022-10-16T04:42:16;100135.47;;;6.53;80.16
69879;BME280;57161;43.136;24.706;2022-10-16T04:44:42;100147.69;;;6.67;80.32
69879;BME280;57161;43.136;24.706;2022-10-16T04:47:08;100149.63;;;6.55;80.56
69879;BME280;57161;43.136;24.706;2022-10-16T04:49:33;100151.69;;;6.66;80.61
69879;BME280;57161;43.136;24.706;2022-10-16T04:51:59;100153.28;;;6.73;80.18
69879;BME280;57161;43.136;24.706;2022-10-16T04:54:24;100139.31;;;6.61;80.42
69879;BME280;57161;43.136;24.706;2022-10-16T04:56:49;100112.16;;;6.45;80.09
69879;BME280;57161;43.136;24.706;2022-10-16T04:59:18;100163.41;;;6.81;80.07
69879;BME280;57161;43.136;24.706;2022-10-16T05:01:44;100164.72;;;6.86;79.65
69879;BME280;57161;43.136;24.706;2022-10-16T05:04:09;100164.75;;;6.91;79.66
69879;BME280;57161;43.136;24.706;2022-10-16T05:06:35;100159.94;;;6.86;79.60
69879;BME280;57161;43.136;24.706;2022-10-16T05:09:01;100157.66;;;6.85;79.68
69879;BME280;57161;43.136;24.706;2022-10-16T05:11:27;100167.56;;;6.97;79.46
69879;BME280;57161;43.136;24.706;2022-10-16T05:13:53;100175.97;;;7.08;79.63
69879;BME280;57161;43.136;24.706;2022-10-16T05:16:18;100131.41;;;6.86;79.54
69879;BME280;57161;43.136;24.706;2022-10-16T05:18:44;100160.81;;;7.09;78.98
69879;BME280;57161;43.136;24.706;2022-10-16T05:21:09;100180.88;;;7.25;78.92
69879;BME280;57161;43.136;24.706;2022-10-16T05:23:35;100196.09;;;7.35;79.03
69879;BME280;57161;43.136;24.706;2022-10-16T05:26:00;100187.50;;;7.33;78.92
69879;BME280;57161;43.136;24.706;2022-10-16T05:28:27;100203.50;;;7.49;78.77
69879;BME280;57161;43.136;24.706;2022-10-16T05:30:53;100201.47;;;7.49;78.67
69879;BME280;57161;43.136;24.706;2022-10-16T05:33:24;100211.88;;;7.55;78.54
69879;BME280;57161;43.136;24.706;2022-10-16T05:35:51;100180.22;;;7.46;78.29
69879;BME280;57161;43.136;24.706;2022-10-16T05:38:17;100211.69;;;7.69;78.12
69879;BME280;57161;43.136;24.706;2022-10-16T05:40:43;100205.59;;;7.71;77.82
69879;BME280;57161;43.136;24.706;2022-10-16T05:43:15;100180.03;;;7.61;77.56
69879;BME280;57161;43.136;24.706;2022-10-16T05:45:41;100198.59;;;7.87;77.45
69879;BME280;57161;43.136;24.706;2022-10-16T05:48:06;100207.44;;;7.96;77.04
69879;BME280;57161;43.136;24.706;2022-10-16T05:50:31;100218.59;;;7.96;76.74
69879;BME280;57161;43.136;24.706;2022-10-16T05:52:57;100201.88;;;7.85;76.69
69879;BME280;57161;43.136;24.706;2022-10-16T05:55:22;100195.81;;;7.92;76.30
69879;BME280;57161;43.136;24.706;2022-10-16T05:57:48;100232.06;;;8.26;76.11
69879;BME280;57161;43.136;24.706;2022-10-16T06:00:13;100247.78;;;8.29;76.24
69879;BME280;57161;43.136;24.706;2022-10-16T06:02:39;100161.66;;;7.92;75.92
69879;BME280;57161;43.136;24.706;2022-10-16T06:05:04;100219.97;;;8.40;75.39
69879;BME280;57161;43.136;24.706;2022-10-16T06:07:34;100195.63;;;8.24;75.25
69879;BME280;57161;43.136;24.706;2022-10-16T06:09:59;100197.91;;;8.25;75.13
69879;BME280;57161;43.136;24.706;2022-10-16T06:12:26;100252.94;;;8.75;74.98
69879;BME280;57161;43.136;24.706;2022-10-16T06:14:52;100236.97;;;8.76;74.61
69879;BME280;57161;43.136;24.706;2022-10-16T06:17:17;100252.94;;;8.97;74.28
69879;BME280;57161;43.136;24.706;2022-10-16T06:19:43;100238.25;;;8.97;74.39
69879;BME280;57161;43.136;24.706;2022-10-16T06:22:08;100246.84;;;9.10;74.10
69879;BME280;57161;43.136;24.706;2022-10-16T06:24:34;100251.91;;;9.23;74.09
69879;BME280;57161;43.136;24.706;2022-10-16T06:26:59;100264.53;;;9.41;73.98
69879;BME280;57161;43.136;24.706;2022-10-16T06:29:25;100259.47;;;9.50;73.78
69879;BME280;57161;43.136;24.706;2022-10-16T06:31:50;100266.00;;;9.64;73.61
69879;BME280;57161;43.136;24.706;2022-10-16T06:34:16;100253.59;;;9.65;73.26
69879;BME280;57161;43.136;24.706;2022-10-16T06:36:41;100269.00;;;9.83;72.95
69879;BME280;57161;43.136;24.706;2022-10-16T06:39:08;100242.13;;;9.74;72.53
69879;BME280;57161;43.136;24.706;2022-10-16T06:41:34;100269.69;;;10.00;72.52
69879;BME280;57161;43.136;24.706;2022-10-16T06:44:00;100269.41;;;10.09;72.06
69879;BME280;57161;43.136;24.706;2022-10-16T06:46:26;100280.25;;;10.24;71.86
69879;BME280;57161;43.136;24.706;2022-10-16T06:48:55;100240.91;;;10.16;71.28
69879;BME280;57161;43.136;24.706;2022-10-16T06:51:22;100279.34;;;10.51;71.15
69879;BME280;57161;43.136;24.706;2022-10-16T06:53:53;100278.72;;;10.70;70.87
69879;BME280;57161;43.136;24.706;2022-10-16T06:56:26;100275.09;;;10.80;70.31
69879;BME280;57161;43.136;24.706;2022-10-16T06:58:53;100262.38;;;10.79;70.12
69879;BME280;57161;43.136;24.706;2022-10-16T07:01:21;100281.22;;;11.09;69.47
69879;BME280;57161;43.136;24.706;2022-10-16T07:03:47;100287.28;;;11.13;70.12
69879;BME280;57161;43.136;24.706;2022-10-16T07:06:16;100295.00;;;11.31;69.43
69879;BME280;57161;43.136;24.706;2022-10-16T07:08:44;100279.94;;;11.34;68.68
69879;BME280;57161;43.136;24.706;2022-10-16T07:11:12;100299.56;;;11.59;68.57
69879;BME280;57161;43.136;24.706;2022-10-16T07:13:40;100300.03;;;11.63;68.43
69879;BME280;57161;43.136;24.706;2022-10-16T07:16:16;100301.19;;;11.73;68.30
69879;BME280;57161;43.136;24.706;2022-10-16T07:18:43;100291.69;;;11.82;67.90
69879;BME280;57161;43.136;24.706;2022-10-16T07:21:13;100305.22;;;12.02;67.71
69879;BME280;57161;43.136;24.706;2022-10-16T07:23:39;100294.53;;;12.19;67.42
69879;BME280;57161;43.136;24.706;2022-10-16T07:26:06;100299.16;;;12.36;66.95
69879;BME280;57161;43.136;24.706;2022-10-16T07:28:32;100286.63;;;12.42;66.64
69879;BME280;57161;43.136;24.706;2022-10-16T07:31:05;100259.88;;;12.41;65.92
69879;BME280;57161;43.136;24.706;2022-10-16T07:33:32;100290.38;;;12.63;64.90
69879;BME280;57161;43.136;24.706;2022-10-16T07:35:57;100274.25;;;12.70;64.30
69879;BME280;57161;43.136;24.706;2022-10-16T07:38:23;100288.38;;;12.77;64.34
69879;BME280;57161;43.136;24.706;2022-10-16T07:41:05;100298.06;;;12.95;64.00
69879;BME280;57161;43.136;24.706;2022-10-16T07:43:31;100300.38;;;13.10;63.87
69879;BME280;57161;43.136;24.706;2022-10-16T07:45:57;100290.56;;;13.16;63.19
69879;BME280;57161;43.136;24.706;2022-10-16T07:48:23;100288.13;;;13.26;62.57
69879;BME280;57161;43.136;24.706;2022-10-16T07:50:50;100265.09;;;13.14;61.19
69879;BME280;57161;43.136;24.706;2022-10-16T07:53:15;100305.13;;;13.47;59.63
69879;BME280;57161;43.136;24.706;2022-10-16T07:55:41;100307.94;;;13.60;59.34
69879;BME280;57161;43.136;24.706;2022-10-16T07:58:07;100295.41;;;13.61;59.12
69879;BME280;57161;43.136;24.706;2022-10-16T08:00:33;100288.09;;;13.71;58.56
69879;BME280;57161;43.136;24.706;2022-10-16T08:02:59;100302.44;;;13.94;58.19
69879;BME280;57161;43.136;24.706;2022-10-16T08:05:26;100290.66;;;13.96;58.70
69879;BME280;57161;43.136;24.706;2022-10-16T08:07:52;100310.94;;;14.15;58.43
69879;BME280;57161;43.136;24.706;2022-10-16T08:10:21;100282.22;;;14.09;57.91
69879;BME280;57161;43.136;24.706;2022-10-16T08:12:46;100263.44;;;14.04;58.54
69879;BME280;57161;43.136;24.706;2022-10-16T08:15:12;100302.41;;;14.34;58.09
69879;BME280;57161;43.136;24.706;2022-10-16T08:17:38;100296.66;;;14.26;57.89
69879;BME280;57161;43.136;24.706;2022-10-16T08:20:04;100300.13;;;14.32;58.00
69879;BME280;57161;43.136;24.706;2022-10-16T08:22:30;100282.16;;;14.35;58.04
69879;BME280;57161;43.136;24.706;2022-10-16T08:24:55;100291.66;;;14.46;57.89
69879;BME280;57161;43.136;24.706;2022-10-16T08:27:21;100286.69;;;14.52;58.31
69879;BME280;57161;43.136;24.706;2022-10-16T08:29:48;100293.25;;;14.67;57.64
69879;BME280;57161;43.136;24.706;2022-10-16T08:32:14;100190.47;;;13.98;57.79
69879;BME280;57161;43.136;24.706;2022-10-16T08:34:39;100268.34;;;14.71;57.59
69879;BME280;57161;43.136;24.706;2022-10-16T08:37:05;100310.28;;;15.04;57.25
69879;BME280;57161;43.136;24.706;2022-10-16T08:39:32;100304.84;;;15.06;57.23
69879;BME280;57161;43.136;24.706;2022-10-16T08:42:21;100308.50;;;15.14;56.40
69879;BME280;57161;43.136;24.706;2022-10-16T08:45:04;100316.66;;;15.25;56.42
69879;BME280;57161;43.136;24.706;2022-10-16T08:50:19;100315.03;;;15.29;56.40
69879;BME280;57161;43.136;24.706;2022-10-16T08:52:46;100311.66;;;15.31;55.41
69879;BME280;57161;43.136;24.706;2022-10-16T08:57:59;100303.19;;;15.52;54.52
69879;BME280;57161;43.136;24.706;2022-10-16T09:00:25;100302.06;;;15.55;54.06
69879;BME280;57161;43.136;24.706;2022-10-16T09:05:52;100321.75;;;15.76;51.93
69879;BME280;57161;43.136;24.706;2022-10-16T09:11:11;100309.03;;;15.82;51.21
69879;BME280;57161;43.136;24.706;2022-10-16T09:13:45;100322.50;;;16.05;51.50
69879;BME280;57161;43.136;24.706;2022-10-16T09:16:21;100322.00;;;16.14;52.47
69879;BME280;57161;43.136;24.706;2022-10-16T09:21:36;100327.66;;;16.21;50.61
69879;BME280;57161;43.136;24.706;2022-10-16T09:24:13;100302.09;;;16.19;50.51
69879;BME280;57161;43.136;24.706;2022-10-16T09:26:39;100329.13;;;16.59;49.48
69879;BME280;57161;43.136;24.706;2022-10-16T09:29:05;100310.28;;;16.46;50.37
69879;BME280;57161;43.136;24.706;2022-10-16T09:31:30;100324.34;;;16.82;49.42
69879;BME280;57161;43.136;24.706;2022-10-16T09:34:00;100321.72;;;16.84;48.26
69879;BME280;57161;43.136;24.706;2022-10-16T09:36:36;100311.31;;;16.71;48.60
69879;BME280;57161;43.136;24.706;2022-10-16T09:39:07;100310.03;;;16.80;48.88
69879;BME280;57161;43.136;24.706;2022-10-16T09:41:37;100318.69;;;16.90;48.42
69879;BME280;57161;43.136;24.706;2022-10-16T09:44:05;100315.72;;;16.95;47.25
69879;BME280;57161;43.136;24.706;2022-10-16T09:46:37;100297.44;;;16.89;46.79
69879;BME280;57161;43.136;24.706;2022-10-16T09:49:22;100239.22;;;16.55;47.04
69879;BME280;57161;43.136;24.706;2022-10-16T09:51:48;100288.63;;;17.00;47.23
69879;BME280;57161;43.136;24.706;2022-10-16T09:54:19;100292.00;;;17.14;47.70
69879;BME280;57161;43.136;24.706;2022-10-16T09:56:46;100291.44;;;17.23;47.33
69879;BME280;57161;43.136;24.706;2022-10-16T09:59:20;100300.84;;;17.33;46.85
69879;BME280;57161;43.136;24.706;2022-10-16T10:01:48;100292.00;;;17.36;46.75
69879;BME280;57161;43.136;24.706;2022-10-16T10:04:16;100293.69;;;17.47;46.34
69879;BME280;57161;43.136;24.706;2022-10-16T10:09:20;100277.13;;;17.44;46.43
69879;BME280;57161;43.136;24.706;2022-10-16T10:19:40;100292.34;;;17.56;46.97
69879;BME280;57161;43.136;24.706;2022-10-16T10:22:42;100283.31;;;17.65;47.30
69879;BME280;57161;43.136;24.706;2022-10-16T10:30:39;100285.38;;;17.80;46.27
69879;BME280;57161;43.136;24.706;2022-10-16T10:33:41;100281.81;;;17.79;45.73
69879;BME280;57161;43.136;24.706;2022-10-16T10:38:58;100274.03;;;17.87;46.09
69879;BME280;57161;43.136;24.706;2022-10-16T10:47:59;100266.59;;;18.15;45.70
69879;BME280;57161;43.136;24.706;2022-10-16T11:02:00;100247.97;;;18.12;44.28
69879;BME280;57161;43.136;24.706;2022-10-16T11:07:25;100244.09;;;18.32;44.08
69879;BME280;57161;43.136;24.706;2022-10-16T11:09:58;100241.25;;;18.32;44.26
69879;BME280;57161;43.136;24.706;2022-10-16T11:12:30;100249.63;;;18.15;44.06
69879;BME280;57161;43.136;24.706;2022-10-16T11:15:12;100241.88;;;18.23;44.30
69879;BME280;57161;43.136;24.706;2022-10-16T11:17:44;100186.47;;;17.80;44.04
69879;BME280;57161;43.136;24.706;2022-10-16T11:20:26;100244.81;;;18.40;44.10
69879;BME280;57161;43.136;24.706;2022-10-16T11:23:00;100235.25;;;18.28;44.11
69879;BME280;57161;43.136;24.706;2022-10-16T11:25:31;100236.03;;;18.21;44.45
69879;BME280;57161;43.136;24.706;2022-10-16T11:28:23;100216.84;;;18.12;44.22
69879;BME280;57161;43.136;24.706;2022-10-16T11:31:43;100241.13;;;18.22;44.25
69879;BME280;57161;43.136;24.706;2022-10-16T11:34:27;100244.88;;;18.25;44.29
69879;BME280;57161;43.136;24.706;2022-10-16T11:37:20;100236.03;;;18.21;43.80
69879;BME280;57161;43.136;24.706;2022-10-16T11:39:48;100247.50;;;18.30;43.86
69879;BME280;57161;43.136;24.706;2022-10-16T11:42:39;100241.41;;;18.42;44.08
69879;BME280;57161;43.136;24.706;2022-10-16T11:48:26;100245.34;;;18.46;44.22
69879;BME280;57161;43.136;24.706;2022-10-16T11:50:57;100247.59;;;18.48;43.51
69879;BME280;57161;43.136;24.706;2022-10-16T11:53:39;100241.59;;;18.36;43.55
69879;BME280;57161;43.136;24.706;2022-10-16T11:56:07;100203.28;;;18.10;43.08
69879;BME280;57161;43.136;24.706;2022-10-16T11:58:54;100249.25;;;18.51;42.43
69879;BME280;57161;43.136;24.706;2022-10-16T12:01:43;100245.25;;;18.62;42.83
69879;BME280;57161;43.136;24.706;2022-10-16T12:04:22;100240.09;;;18.75;42.69
69879;BME280;57161;43.136;24.706;2022-10-16T12:09:32;100245.41;;;18.71;42.18
69879;BME280;57161;43.136;24.706;2022-10-16T12:12:00;100220.91;;;18.66;42.09
69879;BME280;57161;43.136;24.706;2022-10-16T12:20:01;100235.53;;;18.80;41.30
69879;BME280;57161;43.136;24.706;2022-10-16T12:22:29;100244.19;;;18.82;40.92
69879;BME280;57161;43.136;24.706;2022-10-16T12:24:56;100238.44;;;18.65;40.78
69879;BME280;57161;43.136;24.706;2022-10-16T12:27:28;100254.66;;;18.72;41.40
69879;BME280;57161;43.136;24.706;2022-10-16T12:29:56;100239.91;;;18.73;41.06
69879;BME280;57161;43.136;24.706;2022-10-16T12:32:32;100250.72;;;18.92;40.64
69879;BME280;57161;43.136;24.706;2022-10-16T12:35:00;100187.75;;;18.51;40.80
69879;BME280;57161;43.136;24.706;2022-10-16T12:37:31;100238.00;;;19.01;40.93
69879;BME280;57161;43.136;24.706;2022-10-16T12:39:58;100236.75;;;18.94;40.29
69879;BME280;57161;43.136;24.706;2022-10-16T12:44:53;100222.91;;;18.98;40.52
69879;BME280;57161;43.136;24.706;2022-10-16T12:47:49;100250.25;;;19.03;40.13
69879;BME280;57161;43.136;24.706;2022-10-16T12:50:33;100246.22;;;18.89;40.89
69879;BME280;57161;43.136;24.706;2022-10-16T12:53:00;100248.41;;;18.98;40.31
69879;BME280;57161;43.136;24.706;2022-10-16T12:55:26;100250.44;;;19.05;40.09
69879;BME280;57161;43.136;24.706;2022-10-16T12:58:20;100252.06;;;18.91;40.24
69879;BME280;57161;43.136;24.706;2022-10-16T13:01:07;100256.50;;;19.02;40.19
69879;BME280;57161;43.136;24.706;2022-10-16T13:03:49;100256.38;;;18.92;40.25
69879;BME280;57161;43.136;24.706;2022-10-16T13:17:19;100245.97;;;18.70;40.28
69879;BME280;57161;43.136;24.706;2022-10-16T13:22:41;100254.19;;;18.83;39.19
69879;BME280;57161;43.136;24.706;2022-10-16T13:28:08;100257.13;;;18.93;39.35
69879;BME280;57161;43.136;24.706;2022-10-16T13:30:43;100259.66;;;18.81;39.62
69879;BME280;57161;43.136;24.706;2022-10-16T13:33:21;100257.72;;;18.91;39.00
69879;BME280;57161;43.136;24.706;2022-10-16T13:35:54;100261.34;;;18.84;39.19
69879;BME280;57161;43.136;24.706;2022-10-16T13:41:13;100270.41;;;18.82;39.37
69879;BME280;57161;43.136;24.706;2022-10-16T13:54:09;100272.34;;;18.40;38.96
69879;BME280;57161;43.136;24.706;2022-10-16T13:56:39;100235.50;;;18.15;39.08
69879;BME280;57161;43.136;24.706;2022-10-16T13:59:26;100271.22;;;18.43;39.38
69879;BME280;57161;43.136;24.706;2022-10-16T14:01:58;100278.03;;;18.32;39.75
69879;BME280;57161;43.136;24.706;2022-10-16T14:04:32;100274.34;;;18.14;40.11
69879;BME280;57161;43.136;24.706;2022-10-16T14:07:02;100280.41;;;18.11;40.10
69879;BME280;57161;43.136;24.706;2022-10-16T14:14:50;100281.34;;;18.06;40.50
69879;BME280;57161;43.136;24.706;2022-10-16T14:17:26;100279.31;;;17.98;40.36
69879;BME280;57161;43.136;24.706;2022-10-16T14:25:24;100247.00;;;17.46;41.28
69879;BME280;57161;43.136;24.706;2022-10-16T14:28:02;100292.19;;;17.69;41.14
69879;BME280;57161;43.136;24.706;2022-10-16T14:30:32;100259.25;;;17.33;41.32
69879;BME280;57161;43.136;24.706;2022-10-16T14:33:04;100251.34;;;17.32;41.49
69879;BME280;57161;43.136;24.706;2022-10-16T14:35:40;100300.66;;;17.61;41.67
69879;BME280;57161;43.136;24.706;2022-10-16T14:38:18;100300.09;;;17.63;41.78
69879;BME280;57161;43.136;24.706;2022-10-16T14:40:48;100269.56;;;17.54;41.62
69879;BME280;57161;43.136;24.706;2022-10-16T14:43:24;100242.88;;;17.32;41.72
69879;BME280;57161;43.136;24.706;2022-10-16T14:45:54;100300.28;;;17.57;41.46
69879;BME280;57161;43.136;24.706;2022-10-16T14:48:21;100298.56;;;17.54;41.60
69879;BME280;57161;43.136;24.706;2022-10-16T14:50:46;100277.88;;;17.36;41.78
69879;BME280;57161;43.136;24.706;2022-10-16T14:53:13;100283.34;;;17.42;41.74
69879;BME280;57161;43.136;24.706;2022-10-16T14:58:22;100259.84;;;17.09;42.37
69879;BME280;57161;43.136;24.706;2022-10-16T15:00:49;100302.56;;;17.28;42.61
69879;BME280;57161;43.136;24.706;2022-10-16T15:54:08;100336.25;;;16.08;48.34
69879;BME280;57161;43.136;24.706;2022-10-16T15:56:34;100356.50;;;15.99;48.49